Oak Run, California
Current Conditions -  °F | °C
As of 9:53 AM on Thursday 30 Oct 2014 (Local Time) from KRDD Reporting Station
Clear Clear  
Wind Chill: 62°   Ceiling: Unl
Heat Index: 62°   Visibility: 10mi
Dew Point: 54°   Wind: 0mph
Humidity: 75%   Direction: NA
Pressure: 29.95"   Gusts: NA
Location:  40.69°N, 122.02°W
Report Text: KRDD 301653Z 00000KT 10SM CLR 17/12 A2995 RMK AO2 SLP140 T01670122
Loading
Personal Weather Stations






























Interactive Weather Map
Tropical Storm Tracking
New forecast layout! Learn more

10-Day Weather Forecast

Advertisements
Track Severe Weather on mobile